sensor_id;sensor_type;location;lat;lon;timestamp;pressure;altitude;pressure_sealevel;temperature;humidity
24486;BME280;13449;49.374;8.584;2023-02-26T00:01:01;100215.06;;;-0.30;72.53
24486;BME280;13449;49.374;8.584;2023-02-26T00:03:28;100216.44;;;-0.35;72.68
24486;BME280;13449;49.374;8.584;2023-02-26T00:05:59;100221.28;;;-0.29;72.69
24486;BME280;13449;49.374;8.584;2023-02-26T00:08:26;100219.47;;;-0.29;72.77
24486;BME280;13449;49.374;8.584;2023-02-26T00:10:53;100223.38;;;-0.33;72.53
24486;BME280;13449;49.374;8.584;2023-02-26T00:13:20;100226.06;;;-0.33;72.10
24486;BME280;13449;49.374;8.584;2023-02-26T00:15:49;100218.16;;;-0.34;72.55
24486;BME280;13449;49.374;8.584;2023-02-26T00:18:19;100214.38;;;-0.43;73.17
24486;BME280;13449;49.374;8.584;2023-02-26T00:20:49;100225.19;;;-0.33;72.59
24486;BME280;13449;49.374;8.584;2023-02-26T00:23:16;100215.97;;;-0.52;73.30
24486;BME280;13449;49.374;8.584;2023-02-26T00:25:44;100215.09;;;-0.63;74.07
24486;BME280;13449;49.374;8.584;2023-02-26T00:28:12;100217.78;;;-0.63;74.50
24486;BME280;13449;49.374;8.584;2023-02-26T00:30:39;100225.59;;;-0.60;73.81
24486;BME280;13449;49.374;8.584;2023-02-26T00:33:05;100222.66;;;-0.57;74.12
24486;BME280;13449;49.374;8.584;2023-02-26T00:35:33;100225.94;;;-0.54;73.39
24486;BME280;13449;49.374;8.584;2023-02-26T00:38:10;100229.84;;;-0.58;74.30
24486;BME280;13449;49.374;8.584;2023-02-26T00:40:47;100233.38;;;-0.57;74.02
24486;BME280;13449;49.374;8.584;2023-02-26T00:43:16;100237.75;;;-0.34;73.13
24486;BME280;13449;49.374;8.584;2023-02-26T00:45:50;100247.72;;;-0.36;72.77
24486;BME280;13449;49.374;8.584;2023-02-26T00:48:43;100236.41;;;-0.39;72.46
24486;BME280;13449;49.374;8.584;2023-02-26T00:51:31;100242.13;;;-0.33;72.49
24486;BME280;13449;49.374;8.584;2023-02-26T00:54:22;100242.13;;;-0.33;72.57
24486;BME280;13449;49.374;8.584;2023-02-26T00:56:52;100249.44;;;-0.35;72.50
24486;BME280;13449;49.374;8.584;2023-02-26T00:59:19;100249.28;;;-0.33;71.93
24486;BME280;13449;49.374;8.584;2023-02-26T01:01:47;100249.19;;;-0.32;72.28
24486;BME280;13449;49.374;8.584;2023-02-26T01:04:16;100238.97;;;-0.38;72.51
24486;BME280;13449;49.374;8.584;2023-02-26T01:06:54;100254.53;;;-0.32;72.38
24486;BME280;13449;49.374;8.584;2023-02-26T01:12:00;100237.72;;;-0.45;72.63
24486;BME280;13449;49.374;8.584;2023-02-26T01:14:28;100247.13;;;-0.39;72.50
24486;BME280;13449;49.374;8.584;2023-02-26T01:17:10;100247.84;;;-0.37;72.65
24486;BME280;13449;49.374;8.584;2023-02-26T01:25:09;100233.13;;;-0.54;73.16
24486;BME280;13449;49.374;8.584;2023-02-26T01:27:41;100233.75;;;-0.62;73.67
24486;BME280;13449;49.374;8.584;2023-02-26T01:30:10;100245.66;;;-0.55;73.36
24486;BME280;13449;49.374;8.584;2023-02-26T01:32:54;100227.78;;;-0.65;73.95
24486;BME280;13449;49.374;8.584;2023-02-26T01:35:49;100233.63;;;-0.71;74.36
24486;BME280;13449;49.374;8.584;2023-02-26T01:46:21;100227.41;;;-0.83;74.42
24486;BME280;13449;49.374;8.584;2023-02-26T01:48:57;100232.16;;;-0.86;74.84
24486;BME280;13449;49.374;8.584;2023-02-26T01:51:52;100236.66;;;-0.87;74.62
24486;BME280;13449;49.374;8.584;2023-02-26T01:54:27;100218.50;;;-0.94;74.91
24486;BME280;13449;49.374;8.584;2023-02-26T01:57:01;100229.94;;;-0.92;75.51
24486;BME280;13449;49.374;8.584;2023-02-26T01:59:36;100235.03;;;-0.89;74.79
24486;BME280;13449;49.374;8.584;2023-02-26T02:02:07;100231.13;;;-0.97;75.15
24486;BME280;13449;49.374;8.584;2023-02-26T02:04:38;100226.13;;;-1.01;75.29
24486;BME280;13449;49.374;8.584;2023-02-26T02:07:08;100233.09;;;-0.99;75.45
24486;BME280;13449;49.374;8.584;2023-02-26T02:09:35;100234.16;;;-1.01;75.85
24486;BME280;13449;49.374;8.584;2023-02-26T02:17:27;100233.47;;;-1.38;76.54
24486;BME280;13449;49.374;8.584;2023-02-26T02:22:54;100237.81;;;-1.48;77.25
24486;BME280;13449;49.374;8.584;2023-02-26T02:31:24;100245.16;;;-1.39;77.17
24486;BME280;13449;49.374;8.584;2023-02-26T02:34:18;100250.50;;;-1.39;76.79
24486;BME280;13449;49.374;8.584;2023-02-26T02:37:01;100247.81;;;-1.39;76.95
24486;BME280;13449;49.374;8.584;2023-02-26T02:39:41;100256.63;;;-1.50;76.73
24486;BME280;13449;49.374;8.584;2023-02-26T02:42:43;100252.91;;;-1.47;77.26
24486;BME280;13449;49.374;8.584;2023-02-26T02:45:18;100256.31;;;-1.34;76.91
24486;BME280;13449;49.374;8.584;2023-02-26T02:47:49;100269.69;;;-1.34;76.40
24486;BME280;13449;49.374;8.584;2023-02-26T02:53:01;100267.84;;;-1.44;77.18
24486;BME280;13449;49.374;8.584;2023-02-26T02:55:42;100263.25;;;-1.42;77.34
24486;BME280;13449;49.374;8.584;2023-02-26T02:58:17;100272.84;;;-1.40;76.60
24486;BME280;13449;49.374;8.584;2023-02-26T03:00:49;100275.38;;;-1.38;76.01
24486;BME280;13449;49.374;8.584;2023-02-26T03:05:46;100283.03;;;-1.45;76.71
24486;BME280;13449;49.374;8.584;2023-02-26T03:08:16;100266.69;;;-1.53;77.15
24486;BME280;13449;49.374;8.584;2023-02-26T03:10:48;100273.72;;;-1.63;77.32
24486;BME280;13449;49.374;8.584;2023-02-26T03:13:16;100274.44;;;-1.61;77.60
24486;BME280;13449;49.374;8.584;2023-02-26T03:18:42;100289.13;;;-1.43;76.98
24486;BME280;13449;49.374;8.584;2023-02-26T03:21:22;100284.69;;;-1.55;77.06
24486;BME280;13449;49.374;8.584;2023-02-26T03:24:06;100297.47;;;-1.48;76.92
24486;BME280;13449;49.374;8.584;2023-02-26T03:26:43;100302.41;;;-1.30;76.52
24486;BME280;13449;49.374;8.584;2023-02-26T03:29:22;100304.34;;;-1.32;76.66
24486;BME280;13449;49.374;8.584;2023-02-26T03:32:10;100303.75;;;-1.36;76.33
24486;BME280;13449;49.374;8.584;2023-02-26T03:35:32;100300.31;;;-1.38;76.32
24486;BME280;13449;49.374;8.584;2023-02-26T03:37:40;100302.50;;;-1.43;77.35
24486;BME280;13449;49.374;8.584;2023-02-26T03:40:14;100300.88;;;-1.46;77.59
24486;BME280;13449;49.374;8.584;2023-02-26T03:42:51;100306.75;;;-1.40;77.28
24486;BME280;13449;49.374;8.584;2023-02-26T03:45:23;100315.19;;;-1.58;77.13
24486;BME280;13449;49.374;8.584;2023-02-26T03:47:54;100313.78;;;-1.63;77.92
24486;BME280;13449;49.374;8.584;2023-02-26T03:50:30;100314.13;;;-1.68;78.54
24486;BME280;13449;49.374;8.584;2023-02-26T03:52:58;100321.66;;;-1.73;78.62
24486;BME280;13449;49.374;8.584;2023-02-26T03:55:32;100317.38;;;-1.75;78.93
24486;BME280;13449;49.374;8.584;2023-02-26T03:58:00;100321.44;;;-1.82;78.90
24486;BME280;13449;49.374;8.584;2023-02-26T04:00:28;100320.50;;;-1.81;78.60
24486;BME280;13449;49.374;8.584;2023-02-26T04:03:01;100321.84;;;-1.76;79.19
24486;BME280;13449;49.374;8.584;2023-02-26T04:05:34;100325.72;;;-1.80;79.28
24486;BME280;13449;49.374;8.584;2023-02-26T04:08:02;100338.34;;;-1.82;78.57
24486;BME280;13449;49.374;8.584;2023-02-26T04:10:39;100327.97;;;-1.86;79.32
24486;BME280;13449;49.374;8.584;2023-02-26T04:13:06;100322.34;;;-1.95;79.28
24486;BME280;13449;49.374;8.584;2023-02-26T04:15:33;100327.03;;;-1.85;79.22
24486;BME280;13449;49.374;8.584;2023-02-26T04:17:59;100331.28;;;-1.83;79.60
24486;BME280;13449;49.374;8.584;2023-02-26T04:20:26;100331.75;;;-1.89;79.63
24486;BME280;13449;49.374;8.584;2023-02-26T04:22:52;100341.00;;;-1.82;79.14
24486;BME280;13449;49.374;8.584;2023-02-26T04:25:18;100339.44;;;-1.84;79.67
24486;BME280;13449;49.374;8.584;2023-02-26T04:27:45;100343.28;;;-1.88;80.07
24486;BME280;13449;49.374;8.584;2023-02-26T04:30:12;100348.72;;;-1.90;79.58
24486;BME280;13449;49.374;8.584;2023-02-26T04:32:38;100342.28;;;-1.87;80.29
24486;BME280;13449;49.374;8.584;2023-02-26T04:35:07;100350.44;;;-1.89;80.04
24486;BME280;13449;49.374;8.584;2023-02-26T04:37:36;100361.84;;;-1.74;79.76
24486;BME280;13449;49.374;8.584;2023-02-26T04:40:03;100357.59;;;-1.89;79.72
24486;BME280;13449;49.374;8.584;2023-02-26T04:42:30;100364.72;;;-1.77;80.51
24486;BME280;13449;49.374;8.584;2023-02-26T04:44:56;100364.13;;;-1.93;79.88
24486;BME280;13449;49.374;8.584;2023-02-26T04:47:23;100369.88;;;-1.87;80.16
24486;BME280;13449;49.374;8.584;2023-02-26T04:49:49;100368.47;;;-1.80;79.27
24486;BME280;13449;49.374;8.584;2023-02-26T04:52:18;100375.13;;;-1.85;79.93
24486;BME280;13449;49.374;8.584;2023-02-26T04:54:45;100377.56;;;-1.82;79.66
24486;BME280;13449;49.374;8.584;2023-02-26T04:57:11;100372.97;;;-1.80;80.52
24486;BME280;13449;49.374;8.584;2023-02-26T04:59:38;100376.94;;;-1.86;80.37
24486;BME280;13449;49.374;8.584;2023-02-26T05:02:04;100377.78;;;-1.85;80.08
24486;BME280;13449;49.374;8.584;2023-02-26T05:04:34;100377.88;;;-1.87;80.65
24486;BME280;13449;49.374;8.584;2023-02-26T05:07:00;100370.84;;;-1.88;81.09
24486;BME280;13449;49.374;8.584;2023-02-26T05:09:27;100381.53;;;-1.88;80.25
24486;BME280;13449;49.374;8.584;2023-02-26T05:11:53;100372.66;;;-1.88;81.10
24486;BME280;13449;49.374;8.584;2023-02-26T05:14:20;100386.88;;;-1.88;80.55
24486;BME280;13449;49.374;8.584;2023-02-26T05:16:46;100387.72;;;-1.87;81.49
24486;BME280;13449;49.374;8.584;2023-02-26T05:19:13;100385.41;;;-1.92;81.71
24486;BME280;13449;49.374;8.584;2023-02-26T05:21:39;100387.44;;;-1.96;81.91
24486;BME280;13449;49.374;8.584;2023-02-26T05:24:06;100390.97;;;-1.95;82.15
24486;BME280;13449;49.374;8.584;2023-02-26T05:26:32;100397.75;;;-1.91;81.58
24486;BME280;13449;49.374;8.584;2023-02-26T05:29:01;100393.50;;;-1.81;81.96
24486;BME280;13449;49.374;8.584;2023-02-26T05:31:27;100399.06;;;-1.84;82.09
24486;BME280;13449;49.374;8.584;2023-02-26T05:33:55;100403.41;;;-1.83;81.84
24486;BME280;13449;49.374;8.584;2023-02-26T05:36:22;100406.00;;;-1.81;81.75
24486;BME280;13449;49.374;8.584;2023-02-26T05:38:49;100408.53;;;-1.80;82.37
24486;BME280;13449;49.374;8.584;2023-02-26T05:41:15;100416.78;;;-1.70;81.76
24486;BME280;13449;49.374;8.584;2023-02-26T05:43:42;100415.47;;;-1.65;81.83
24486;BME280;13449;49.374;8.584;2023-02-26T05:46:10;100423.28;;;-1.62;81.69
24486;BME280;13449;49.374;8.584;2023-02-26T05:48:39;100432.13;;;-1.61;81.03
24486;BME280;13449;49.374;8.584;2023-02-26T05:51:06;100421.41;;;-1.49;81.22
24486;BME280;13449;49.374;8.584;2023-02-26T05:53:32;100431.88;;;-1.46;80.68
24486;BME280;13449;49.374;8.584;2023-02-26T05:55:59;100434.16;;;-1.52;80.83
24486;BME280;13449;49.374;8.584;2023-02-26T05:58:25;100432.63;;;-1.43;81.28
24486;BME280;13449;49.374;8.584;2023-02-26T06:00:52;100437.69;;;-1.52;81.46
24486;BME280;13449;49.374;8.584;2023-02-26T06:03:18;100437.47;;;-1.61;81.47
24486;BME280;13449;49.374;8.584;2023-02-26T06:05:45;100446.69;;;-1.65;82.02
24486;BME280;13449;49.374;8.584;2023-02-26T06:08:12;100443.81;;;-1.62;81.75
24486;BME280;13449;49.374;8.584;2023-02-26T06:10:41;100452.69;;;-1.62;82.09
24486;BME280;13449;49.374;8.584;2023-02-26T06:13:10;100452.31;;;-1.57;81.88
24486;BME280;13449;49.374;8.584;2023-02-26T06:15:37;100454.03;;;-1.56;81.73
24486;BME280;13449;49.374;8.584;2023-02-26T06:18:03;100457.34;;;-1.53;81.88
24486;BME280;13449;49.374;8.584;2023-02-26T06:20:30;100473.38;;;-1.53;82.42
24486;BME280;13449;49.374;8.584;2023-02-26T06:23:03;100465.50;;;-1.54;81.96
24486;BME280;13449;49.374;8.584;2023-02-26T06:25:30;100475.09;;;-1.52;82.13
24486;BME280;13449;49.374;8.584;2023-02-26T06:27:56;100480.84;;;-1.45;82.23
24486;BME280;13449;49.374;8.584;2023-02-26T06:30:26;100482.97;;;-1.37;81.48
24486;BME280;13449;49.374;8.584;2023-02-26T06:32:52;100475.91;;;-1.38;81.90
24486;BME280;13449;49.374;8.584;2023-02-26T06:35:19;100487.38;;;-1.36;81.93
24486;BME280;13449;49.374;8.584;2023-02-26T06:37:45;100490.59;;;-1.31;81.78
24486;BME280;13449;49.374;8.584;2023-02-26T06:40:12;100502.09;;;-1.31;81.93
24486;BME280;13449;49.374;8.584;2023-02-26T06:42:39;100513.00;;;-1.21;81.63
24486;BME280;13449;49.374;8.584;2023-02-26T06:45:06;100523.03;;;-1.12;81.73
24486;BME280;13449;49.374;8.584;2023-02-26T06:47:33;100539.06;;;-1.00;81.10
24486;BME280;13449;49.374;8.584;2023-02-26T06:50:04;100540.22;;;-0.91;80.78
24486;BME280;13449;49.374;8.584;2023-02-26T06:52:34;100545.75;;;-0.81;80.85
24486;BME280;13449;49.374;8.584;2023-02-26T06:55:03;100544.69;;;-0.79;80.20
24486;BME280;13449;49.374;8.584;2023-02-26T06:57:30;100552.16;;;-0.71;79.98
24486;BME280;13449;49.374;8.584;2023-02-26T06:59:57;100549.56;;;-0.73;80.34
24486;BME280;13449;49.374;8.584;2023-02-26T07:02:29;100562.72;;;-0.70;79.94
24486;BME280;13449;49.374;8.584;2023-02-26T07:04:55;100549.88;;;-0.65;80.21
24486;BME280;13449;49.374;8.584;2023-02-26T07:07:22;100553.19;;;-0.61;80.03
24486;BME280;13449;49.374;8.584;2023-02-26T07:09:48;100547.59;;;-0.58;79.78
24486;BME280;13449;49.374;8.584;2023-02-26T07:12:15;100563.19;;;-0.52;79.54
24486;BME280;13449;49.374;8.584;2023-02-26T07:14:43;100563.19;;;-0.52;79.17
24486;BME280;13449;49.374;8.584;2023-02-26T07:17:11;100566.28;;;-0.45;79.34
24486;BME280;13449;49.374;8.584;2023-02-26T07:19:51;100568.16;;;-0.35;78.96
24486;BME280;13449;49.374;8.584;2023-02-26T07:22:18;100571.13;;;-0.27;78.20
24486;BME280;13449;49.374;8.584;2023-02-26T07:24:47;100571.28;;;-0.17;77.92
24486;BME280;13449;49.374;8.584;2023-02-26T07:27:15;100580.22;;;-0.06;77.67
24486;BME280;13449;49.374;8.584;2023-02-26T07:29:41;100571.50;;;0.04;77.35
24486;BME280;13449;49.374;8.584;2023-02-26T07:32:10;100575.50;;;0.09;77.08
24486;BME280;13449;49.374;8.584;2023-02-26T07:34:37;100588.00;;;-0.03;76.45
24486;BME280;13449;49.374;8.584;2023-02-26T07:37:05;100579.00;;;-0.02;76.79
24486;BME280;13449;49.374;8.584;2023-02-26T07:39:34;100576.44;;;-0.03;76.81
24486;BME280;13449;49.374;8.584;2023-02-26T07:42:01;100574.84;;;-0.06;77.14
24486;BME280;13449;49.374;8.584;2023-02-26T07:44:27;100593.09;;;-0.11;76.82
24486;BME280;13449;49.374;8.584;2023-02-26T07:46:54;100602.28;;;-0.02;76.56
24486;BME280;13449;49.374;8.584;2023-02-26T07:49:21;100597.44;;;0.03;76.95
24486;BME280;13449;49.374;8.584;2023-02-26T07:51:48;100598.16;;;0.05;77.22
24486;BME280;13449;49.374;8.584;2023-02-26T07:54:14;100607.06;;;0.06;76.95
24486;BME280;13449;49.374;8.584;2023-02-26T07:56:41;100614.22;;;0.05;77.22
24486;BME280;13449;49.374;8.584;2023-02-26T07:59:08;100612.94;;;0.11;77.35
24486;BME280;13449;49.374;8.584;2023-02-26T08:01:37;100622.56;;;0.13;76.38
24486;BME280;13449;49.374;8.584;2023-02-26T08:04:03;100630.97;;;0.20;76.15
24486;BME280;13449;49.374;8.584;2023-02-26T08:06:30;100631.25;;;0.28;75.66
24486;BME280;13449;49.374;8.584;2023-02-26T08:08:57;100638.19;;;0.30;74.94
24486;BME280;13449;49.374;8.584;2023-02-26T08:11:23;100634.69;;;0.30;74.72
24486;BME280;13449;49.374;8.584;2023-02-26T08:13:50;100636.13;;;0.34;74.28
24486;BME280;13449;49.374;8.584;2023-02-26T08:16:16;100631.56;;;0.47;74.50
24486;BME280;13449;49.374;8.584;2023-02-26T08:18:45;100653.53;;;0.52;73.98
24486;BME280;13449;49.374;8.584;2023-02-26T08:21:14;100664.25;;;0.52;73.36
24486;BME280;13449;49.374;8.584;2023-02-26T08:23:40;100647.19;;;0.64;73.93
24486;BME280;13449;49.374;8.584;2023-02-26T08:26:09;100667.84;;;0.75;72.68
24486;BME280;13449;49.374;8.584;2023-02-26T08:28:35;100663.59;;;0.94;71.75
24486;BME280;13449;49.374;8.584;2023-02-26T08:31:02;100669.22;;;1.03;71.78
24486;BME280;13449;49.374;8.584;2023-02-26T08:33:29;100670.19;;;1.02;71.98
24486;BME280;13449;49.374;8.584;2023-02-26T08:35:59;100672.50;;;1.17;71.65
24486;BME280;13449;49.374;8.584;2023-02-26T08:38:28;100675.44;;;1.25;70.91
24486;BME280;13449;49.374;8.584;2023-02-26T08:40:55;100693.28;;;1.37;70.53
24486;BME280;13449;49.374;8.584;2023-02-26T08:43:22;100690.09;;;1.43;69.84
24486;BME280;13449;49.374;8.584;2023-02-26T08:45:51;100687.28;;;1.56;70.08
24486;BME280;13449;49.374;8.584;2023-02-26T08:48:19;100691.09;;;1.54;69.98
24486;BME280;13449;49.374;8.584;2023-02-26T08:50:45;100689.84;;;1.46;69.09
24486;BME280;13449;49.374;8.584;2023-02-26T08:53:15;100703.88;;;1.39;69.16
24486;BME280;13449;49.374;8.584;2023-02-26T08:55:41;100713.28;;;1.22;69.32
24486;BME280;13449;49.374;8.584;2023-02-26T08:58:10;100705.59;;;1.29;69.47
24486;BME280;13449;49.374;8.584;2023-02-26T09:00:36;100707.31;;;1.30;69.58
24486;BME280;13449;49.374;8.584;2023-02-26T09:03:03;100697.44;;;1.41;69.82
24486;BME280;13449;49.374;8.584;2023-02-26T09:05:29;100697.53;;;1.29;69.57
24486;BME280;13449;49.374;8.584;2023-02-26T09:07:56;100710.00;;;1.30;69.47
24486;BME280;13449;49.374;8.584;2023-02-26T09:10:22;100736.00;;;1.18;69.11
24486;BME280;13449;49.374;8.584;2023-02-26T09:12:53;100722.94;;;1.25;69.42
24486;BME280;13449;49.374;8.584;2023-02-26T09:15:25;100729.78;;;1.40;69.15
24486;BME280;13449;49.374;8.584;2023-02-26T09:17:54;100741.00;;;1.34;68.13
24486;BME280;13449;49.374;8.584;2023-02-26T09:20:20;100721.72;;;1.40;69.10
24486;BME280;13449;49.374;8.584;2023-02-26T09:22:46;100730.03;;;1.37;68.91
24486;BME280;13449;49.374;8.584;2023-02-26T09:25:15;100745.41;;;1.35;67.95
24486;BME280;13449;49.374;8.584;2023-02-26T09:27:42;100747.38;;;1.44;68.23
24486;BME280;13449;49.374;8.584;2023-02-26T09:30:09;100758.09;;;1.44;67.61
24486;BME280;13449;49.374;8.584;2023-02-26T09:32:38;100757.75;;;1.37;67.37
24486;BME280;13449;49.374;8.584;2023-02-26T09:35:07;100738.69;;;1.52;67.97
24486;BME280;13449;49.374;8.584;2023-02-26T09:37:37;100762.25;;;1.48;67.24
24486;BME280;13449;49.374;8.584;2023-02-26T09:40:06;100756.88;;;1.48;67.52
24486;BME280;13449;49.374;8.584;2023-02-26T09:45:03;100757.63;;;1.83;67.24
24486;BME280;13449;49.374;8.584;2023-02-26T09:47:50;100764.44;;;2.10;66.90
24486;BME280;13449;49.374;8.584;2023-02-26T09:50:27;100773.47;;;2.20;65.94
24486;BME280;13449;49.374;8.584;2023-02-26T09:53:44;100777.94;;;2.30;65.40
24486;BME280;13449;49.374;8.584;2023-02-26T09:56:16;100784.88;;;2.44;65.36
24486;BME280;13449;49.374;8.584;2023-02-26T09:58:44;100776.81;;;2.44;65.47
24486;BME280;13449;49.374;8.584;2023-02-26T10:09:41;100798.78;;;2.60;64.14
24486;BME280;13449;49.374;8.584;2023-02-26T10:12:18;100800.19;;;2.75;64.53
24486;BME280;13449;49.374;8.584;2023-02-26T10:17:55;100838.88;;;3.27;61.88
24486;BME280;13449;49.374;8.584;2023-02-26T10:20:29;100854.75;;;3.41;60.84
24486;BME280;13449;49.374;8.584;2023-02-26T10:28:58;100882.41;;;3.43;60.25
24486;BME280;13449;49.374;8.584;2023-02-26T10:36:53;100869.53;;;3.67;59.63
24486;BME280;13449;49.374;8.584;2023-02-26T10:39:57;100902.66;;;3.58;58.32
24486;BME280;13449;49.374;8.584;2023-02-26T10:42:31;100924.44;;;3.66;57.40
24486;BME280;13449;49.374;8.584;2023-02-26T10:47:49;100926.66;;;3.40;58.16
24486;BME280;13449;49.374;8.584;2023-02-26T10:50:19;100910.88;;;3.36;58.91
24486;BME280;13449;49.374;8.584;2023-02-26T10:52:46;100899.50;;;3.32;59.44
24486;BME280;13449;49.374;8.584;2023-02-26T10:55:32;100900.22;;;3.34;59.49
24486;BME280;13449;49.374;8.584;2023-02-26T10:58:11;100903.69;;;3.25;59.19
24486;BME280;13449;49.374;8.584;2023-02-26T11:00:41;100901.25;;;3.22;58.50
24486;BME280;13449;49.374;8.584;2023-02-26T11:03:15;100909.47;;;3.21;57.63
24486;BME280;13449;49.374;8.584;2023-02-26T11:05:44;100911.47;;;3.39;58.25
24486;BME280;13449;49.374;8.584;2023-02-26T11:08:19;100920.19;;;3.32;58.05
24486;BME280;13449;49.374;8.584;2023-02-26T11:10:56;100936.25;;;3.33;57.74
24486;BME280;13449;49.374;8.584;2023-02-26T11:13:28;100952.84;;;3.18;56.38
24486;BME280;13449;49.374;8.584;2023-02-26T11:15:58;100955.97;;;3.23;57.11
24486;BME280;13449;49.374;8.584;2023-02-26T11:18:37;100955.88;;;3.24;56.80
24486;BME280;13449;49.374;8.584;2023-02-26T11:21:05;100951.00;;;3.18;57.16
24486;BME280;13449;49.374;8.584;2023-02-26T11:23:33;100950.38;;;3.26;56.90
24486;BME280;13449;49.374;8.584;2023-02-26T11:26:06;100959.59;;;3.44;56.96
24486;BME280;13449;49.374;8.584;2023-02-26T11:28:36;100975.50;;;3.47;56.18
24486;BME280;13449;49.374;8.584;2023-02-26T11:31:09;100979.28;;;3.56;55.95
24486;BME280;13449;49.374;8.584;2023-02-26T11:33:39;100974.81;;;3.66;55.33
24486;BME280;13449;49.374;8.584;2023-02-26T11:36:12;100971.19;;;3.76;56.19
24486;BME280;13449;49.374;8.584;2023-02-26T11:38:46;100989.75;;;3.70;55.10
24486;BME280;13449;49.374;8.584;2023-02-26T11:41:17;101005.97;;;3.59;54.82
24486;BME280;13449;49.374;8.584;2023-02-26T11:43:59;100987.31;;;3.67;55.47
24486;BME280;13449;49.374;8.584;2023-02-26T11:46:26;100992.56;;;3.68;55.19
24486;BME280;13449;49.374;8.584;2023-02-26T11:48:57;101003.66;;;3.54;53.98
24486;BME280;13449;49.374;8.584;2023-02-26T11:51:27;101019.72;;;3.56;53.28
24486;BME280;13449;49.374;8.584;2023-02-26T11:53:58;101009.06;;;3.54;54.18
24486;BME280;13449;49.374;8.584;2023-02-26T11:59:04;101002.63;;;3.66;54.41
24486;BME280;13449;49.374;8.584;2023-02-26T12:01:32;101016.75;;;3.59;54.16
24486;BME280;13449;49.374;8.584;2023-02-26T12:04:01;101021.19;;;3.60;53.89
24486;BME280;13449;49.374;8.584;2023-02-26T12:06:28;101028.63;;;3.56;54.08
24486;BME280;13449;49.374;8.584;2023-02-26T12:08:55;101028.13;;;3.62;53.65
24486;BME280;13449;49.374;8.584;2023-02-26T12:11:53;101030.16;;;3.81;53.46
24486;BME280;13449;49.374;8.584;2023-02-26T12:20:51;101031.94;;;3.92;52.56
24486;BME280;13449;49.374;8.584;2023-02-26T12:26:32;101013.38;;;3.98;53.67
24486;BME280;13449;49.374;8.584;2023-02-26T12:29:28;101016.59;;;3.92;53.08
24486;BME280;13449;49.374;8.584;2023-02-26T12:32:05;101019.69;;;3.87;52.62
24486;BME280;13449;49.374;8.584;2023-02-26T12:34:40;101020.66;;;3.86;53.03
24486;BME280;13449;49.374;8.584;2023-02-26T12:37:36;101020.97;;;4.04;52.92
24486;BME280;13449;49.374;8.584;2023-02-26T12:43:45;101038.84;;;4.05;51.60
24486;BME280;13449;49.374;8.584;2023-02-26T12:49:10;101041.31;;;4.08;51.65
24486;BME280;13449;49.374;8.584;2023-02-26T13:11:49;101052.47;;;4.24;51.75
24486;BME280;13449;49.374;8.584;2023-02-26T13:17:01;101074.81;;;4.26;50.21
24486;BME280;13449;49.374;8.584;2023-02-26T13:24:57;101078.88;;;4.21;50.64
24486;BME280;13449;49.374;8.584;2023-02-26T13:27:30;101090.75;;;4.29;49.41
24486;BME280;13449;49.374;8.584;2023-02-26T13:30:33;101096.25;;;4.28;49.27
24486;BME280;13449;49.374;8.584;2023-02-26T13:33:01;101094.31;;;4.30;49.85
24486;BME280;13449;49.374;8.584;2023-02-26T13:35:37;101079.75;;;4.42;50.85
24486;BME280;13449;49.374;8.584;2023-02-26T13:41:06;101063.28;;;4.45;50.20
24486;BME280;13449;49.374;8.584;2023-02-26T13:43:57;101083.09;;;4.55;49.07
24486;BME280;13449;49.374;8.584;2023-02-26T13:49:08;101108.78;;;4.29;49.19
24486;BME280;13449;49.374;8.584;2023-02-26T13:51:43;101116.59;;;4.32;49.54
24486;BME280;13449;49.374;8.584;2023-02-26T13:59:22;101089.88;;;4.29;50.18
24486;BME280;13449;49.374;8.584;2023-02-26T14:01:55;101100.13;;;4.14;49.12
24486;BME280;13449;49.374;8.584;2023-02-26T14:04:27;101078.81;;;4.32;50.84
24486;BME280;13449;49.374;8.584;2023-02-26T14:07:14;101104.88;;;4.22;49.31
24486;BME280;13449;49.374;8.584;2023-02-26T14:09:59;101087.94;;;4.31;49.98
24486;BME280;13449;49.374;8.584;2023-02-26T14:12:35;101081.50;;;4.32;50.06
24486;BME280;13449;49.374;8.584;2023-02-26T14:17:49;101095.53;;;4.26;50.05
24486;BME280;13449;49.374;8.584;2023-02-26T14:20:23;101101.31;;;4.01;49.24
24486;BME280;13449;49.374;8.584;2023-02-26T14:23:27;101114.25;;;3.86;49.66
24486;BME280;13449;49.374;8.584;2023-02-26T14:26:03;101116.78;;;3.87;49.92
24486;BME280;13449;49.374;8.584;2023-02-26T14:28:39;101106.78;;;3.78;49.77
24486;BME280;13449;49.374;8.584;2023-02-26T14:33:43;101123.94;;;3.77;49.72
24486;BME280;13449;49.374;8.584;2023-02-26T14:36:19;101127.09;;;3.82;49.09
24486;BME280;13449;49.374;8.584;2023-02-26T14:38:47;101130.53;;;3.84;48.69
24486;BME280;13449;49.374;8.584;2023-02-26T14:41:24;101130.63;;;3.94;49.38
24486;BME280;13449;49.374;8.584;2023-02-26T14:46:33;101143.03;;;3.97;48.91
24486;BME280;13449;49.374;8.584;2023-02-26T14:49:01;101139.81;;;4.03;49.28
24486;BME280;13449;49.374;8.584;2023-02-26T14:51:51;101143.47;;;4.02;48.96
24486;BME280;13449;49.374;8.584;2023-02-26T14:59:58;101169.78;;;3.88;47.81
24486;BME280;13449;49.374;8.584;2023-02-26T15:16:49;101173.81;;;3.83;48.77
24486;BME280;13449;49.374;8.584;2023-02-26T15:19:55;101195.78;;;3.78;48.40
24486;BME280;13449;49.374;8.584;2023-02-26T15:25:22;101171.28;;;3.70;49.80
24486;BME280;13449;49.374;8.584;2023-02-26T15:27:51;101158.44;;;3.63;50.16
24486;BME280;13449;49.374;8.584;2023-02-26T15:30:18;101140.19;;;3.55;50.40
24486;BME280;13449;49.374;8.584;2023-02-26T15:32:45;101132.34;;;3.52;50.71
24486;BME280;13449;49.374;8.584;2023-02-26T15:35:19;101135.25;;;3.49;50.49
24486;BME280;13449;49.374;8.584;2023-02-26T15:37:52;101164.31;;;3.46;50.23
24486;BME280;13449;49.374;8.584;2023-02-26T15:40:22;101165.91;;;3.48;48.89
24486;BME280;13449;49.374;8.584;2023-02-26T15:42:50;101154.03;;;3.51;50.66
24486;BME280;13449;49.374;8.584;2023-02-26T15:45:31;101158.44;;;3.52;50.58
24486;BME280;13449;49.374;8.584;2023-02-26T15:48:03;101155.34;;;3.56;50.73
24486;BME280;13449;49.374;8.584;2023-02-26T15:50:39;101136.38;;;3.58;51.06
24486;BME280;13449;49.374;8.584;2023-02-26T15:53:10;101146.53;;;3.65;50.92